PWSweather.com
Personal Weather Stations
Station Observations
SHAHALMS1
Eftra, Falkenberg, HA

EftraFalkenberg, HA

Lat: 56.85, Lon: 12.65

Elevation: 140

Station Type:

http://hem.passagen.se/risarp101

High Low Average
Temperature 68.0°F20.0°C 50.4°F10.2°C 59.7°F15.4°C
Dew Point 60.9°F16.1°C 46.9°F8.3°C 53.5°F11.9°C
Winds 11.3 mph 18.2 kmh 0.2 mph 0.3 kmh 5.0 mph SSE8.0 kmh SSE
Wind Gusts 36.5 mph58.7 kmh 3.9 mph6.3 kmh 14.0 mph22.5 kmh
Humidity 94% 62% 81%
Pressure 29.83 in1010.2 mb 29.65 in1004.1 mb -
Precipitation 0.10 in2.5 mm - -
Hour Temp Dew Point Humidity Winds Wind Gusts Pressure Precip Precip Rate Daily Precip Total
12:00 AM 51.4°F10.8°C 47.7°F8.7°C 87% 3.3 mph ESE5.3 kmh ESE 8.9 mph14.3 kmh 29.68 in1005.1 mb 0.00 in0.0 mm 0.00 in0.0 mm 0.00 in0.0 mm
12:10 AM 51.4°F10.8°C 47.7°F8.7°C 87% 5.4 mph E8.7 kmh E 9.7 mph15.6 kmh 29.68 in1005.1 mb 0.00 in0.0 mm 0.00 in0.0 mm 0.00 in0.0 mm
12:20 AM 51.3°F10.7°C 47.5°F8.6°C 87% 3.9 mph E6.3 kmh E 8.6 mph13.8 kmh 29.68 in1005.1 mb 0.00 in0.0 mm 0.00 in0.0 mm 0.00 in0.0 mm
12:30 AM 51.1°F10.6°C 47.3°F8.5°C 87% 2.0 mph E3.2 kmh E 8.6 mph13.8 kmh 29.68 in1005.1 mb 0.00 in0.0 mm 0.00 in0.0 mm 0.00 in0.0 mm
12:40 AM 50.9°F10.5°C 47.2°F8.4°C 87% 2.4 mph ESE3.9 kmh ESE 9.3 mph15.0 kmh 29.68 in1005.1 mb 0.00 in0.0 mm 0.00 in0.0 mm 0.00 in0.0 mm
12:50 AM 51.1°F10.6°C 47.3°F8.5°C 87% 3.2 mph E5.1 kmh E 8.6 mph13.8 kmh 29.68 in1005.1 mb 0.00 in0.0 mm 0.00 in0.0 mm 0.00 in0.0 mm
01:00 AM 50.9°F10.5°C 47.5°F8.6°C 88% 1.8 mph E2.9 kmh E 6.4 mph10.3 kmh 29.65 in1004.1 mb 0.00 in0.0 mm 0.00 in0.0 mm 0.00 in0.0 mm
01:10 AM 50.7°F10.4°C 47.3°F8.5°C 88% 1.9 mph ESE3.1 kmh ESE 7.5 mph12.1 kmh 29.65 in1004.1 mb 0.00 in0.0 mm 0.00 in0.0 mm 0.00 in0.0 mm
01:20 AM 50.5°F10.3°C 47.1°F8.4°C 88% 2.1 mph E3.4 kmh E 6.4 mph10.3 kmh 29.65 in1004.1 mb 0.00 in0.0 mm 0.00 in0.0 mm 0.00 in0.0 mm
01:30 AM 50.4°F10.2°C 46.9°F8.3°C 88% 4.8 mph ESE7.7 kmh ESE 9.3 mph15.0 kmh 29.65 in1004.1 mb 0.00 in0.0 mm 0.00 in0.0 mm 0.00 in0.0 mm
01:40 AM 50.7°F10.4°C 47.6°F8.7°C 89% 2.4 mph ESE3.9 kmh ESE 6.8 mph10.9 kmh 29.65 in1004.1 mb 0.00 in0.0 mm 0.00 in0.0 mm 0.00 in0.0 mm
01:50 AM 50.4°F10.2°C 47.2°F8.4°C 89% 5.2 mph SE8.4 kmh SE 10.0 mph16.1 kmh 29.65 in1004.1 mb 0.00 in0.0 mm 0.00 in0.0 mm 0.00 in0.0 mm
02:00 AM 50.5°F10.3°C 47.7°F8.7°C 90% 6.5 mph ESE10.5 kmh ESE 10.0 mph16.1 kmh 29.68 in1005.1 mb 0.00 in0.0 mm 0.00 in0.0 mm 0.00 in0.0 mm
02:10 AM 51.1°F10.6°C 48.5°F9.2°C 91% 6.6 mph E10.6 kmh E 10.0 mph16.1 kmh 29.68 in1005.1 mb 0.00 in0.0 mm 0.00 in0.0 mm 0.00 in0.0 mm
02:20 AM 51.1°F10.6°C 48.5°F9.2°C 91% 6.8 mph ESE10.9 kmh ESE 11.5 mph18.5 kmh 29.68 in1005.1 mb 0.00 in0.0 mm 0.00 in0.0 mm 0.00 in0.0 mm
02:30 AM 50.7°F10.4°C 47.9°F8.8°C 90% 7.3 mph SE11.7 kmh SE 10.4 mph16.7 kmh 29.68 in1005.1 mb 0.00 in0.0 mm 0.00 in0.0 mm 0.00 in0.0 mm
02:40 AM 51.4°F10.8°C 49.5°F9.7°C 93% 5.8 mph E9.3 kmh E 10.0 mph16.1 kmh 29.68 in1005.1 mb 0.00 in0.0 mm 0.00 in0.0 mm 0.00 in0.0 mm
02:50 AM 51.6°F10.9°C 49.4°F9.7°C 92% 3.5 mph E5.6 kmh E 8.6 mph13.8 kmh 29.68 in1005.1 mb 0.00 in0.0 mm 0.00 in0.0 mm 0.00 in0.0 mm
03:00 AM 51.4°F10.8°C 49.2°F9.6°C 92% 0.2 mph E0.3 kmh E 5.7 mph9.2 kmh 29.68 in1005.1 mb 0.00 in0.0 mm 0.00 in0.0 mm 0.00 in0.0 mm
03:10 AM 51.4°F10.8°C 49.2°F9.6°C 92% 1.1 mph E1.8 kmh E 9.3 mph15.0 kmh 29.68 in1005.1 mb 0.00 in0.0 mm 0.00 in0.0 mm 0.00 in0.0 mm
03:20 AM 51.8°F11.0°C 49.5°F9.7°C 92% 1.3 mph E2.1 kmh E 6.4 mph10.3 kmh 29.71 in1006.1 mb 0.00 in0.0 mm 0.00 in0.0 mm 0.00 in0.0 mm
03:30 AM 52.3°F11.3°C 50.1°F10.1°C 92% 3.1 mph E5.0 kmh E 9.7 mph15.6 kmh 29.68 in1005.1 mb 0.00 in0.0 mm 0.00 in0.0 mm 0.00 in0.0 mm
03:40 AM 52.7°F11.5°C 50.7°F10.4°C 93% 1.7 mph E2.7 kmh E 9.7 mph15.6 kmh 29.68 in1005.1 mb 0.00 in0.0 mm 0.00 in0.0 mm 0.00 in0.0 mm
03:50 AM 52.7°F11.5°C 50.4°F10.2°C 92% 2.7 mph E4.3 kmh E 8.6 mph13.8 kmh 29.68 in1005.1 mb 0.00 in0.0 mm 0.00 in0.0 mm 0.00 in0.0 mm
04:00 AM 53.1°F11.7°C 50.8°F10.4°C 92% 3.6 mph E5.8 kmh E 11.8 mph19.0 kmh 29.65 in1004.1 mb 0.00 in0.0 mm 0.00 in0.0 mm 0.00 in0.0 mm
04:10 AM 53.4°F11.9°C 51.2°F10.7°C 92% 5.3 mph E8.5 kmh E 10.4 mph16.7 kmh 29.65 in1004.1 mb 0.00 in0.0 mm 0.00 in0.0 mm 0.00 in0.0 mm
04:20 AM 54.0°F12.2°C 52.0°F11.1°C 93% 2.1 mph E3.4 kmh E 8.9 mph14.3 kmh 29.68 in1005.1 mb 0.00 in0.0 mm 0.00 in0.0 mm 0.00 in0.0 mm
04:30 AM 54.3°F12.4°C 52.3°F11.3°C 93% 0.7 mph E1.1 kmh E 7.5 mph12.1 kmh 29.68 in1005.1 mb 0.00 in0.0 mm 0.00 in0.0 mm 0.00 in0.0 mm
04:40 AM 54.9°F12.7°C 52.9°F11.6°C 93% 0.7 mph E1.1 kmh E 8.6 mph13.8 kmh 29.68 in1005.1 mb 0.00 in0.0 mm 0.00 in0.0 mm 0.00 in0.0 mm
04:50 AM 55.8°F13.2°C 53.8°F12.1°C 93% 6.3 mph ESE10.1 kmh ESE 12.5 mph20.1 kmh 29.68 in1005.1 mb 0.00 in0.0 mm 0.00 in0.0 mm 0.00 in0.0 mm
05:00 AM 57.0°F13.9°C 55.3°F12.9°C 94% 1.4 mph SE2.3 kmh SE 10.0 mph16.1 kmh 29.68 in1005.1 mb 0.00 in0.0 mm 0.00 in0.0 mm 0.00 in0.0 mm
05:10 AM 58.3°F14.6°C 56.6°F13.7°C 94% 3.6 mph SE5.8 kmh SE 11.5 mph18.5 kmh 29.68 in1005.1 mb 0.00 in0.0 mm 0.00 in0.0 mm 0.00 in0.0 mm
05:20 AM 59.0°F15.0°C 57.0°F13.9°C 93% 2.8 mph SE4.5 kmh SE 9.7 mph15.6 kmh 29.68 in1005.1 mb 0.00 in0.0 mm 0.00 in0.0 mm 0.00 in0.0 mm
05:30 AM 59.5°F15.3°C 57.2°F14.0°C 92% 1.1 mph SE1.8 kmh SE 7.5 mph12.1 kmh 29.68 in1005.1 mb 0.00 in0.0 mm 0.00 in0.0 mm 0.00 in0.0 mm
05:40 AM 59.9°F15.5°C 57.3°F14.1°C 91% 0.4 mph E0.6 kmh E 5.4 mph8.7 kmh 29.68 in1005.1 mb 0.00 in0.0 mm 0.00 in0.0 mm 0.00 in0.0 mm
05:50 AM 60.1°F15.6°C 57.1°F13.9°C 90% 0.8 mph E1.3 kmh E 5.7 mph9.2 kmh 29.68 in1005.1 mb 0.00 in0.0 mm 0.00 in0.0 mm 0.00 in0.0 mm
06:00 AM 60.1°F15.6°C 57.1°F13.9°C 90% 1.7 mph E2.7 kmh E 8.9 mph14.3 kmh 29.68 in1005.1 mb 0.00 in0.0 mm 0.00 in0.0 mm 0.00 in0.0 mm
06:10 AM 60.3°F15.7°C 57.0°F13.9°C 89% 4.3 mph E6.9 kmh E 11.5 mph18.5 kmh 29.68 in1005.1 mb 0.00 in0.0 mm 0.00 in0.0 mm 0.00 in0.0 mm
06:20 AM 60.4°F15.8°C 57.2°F14.0°C 89% 2.1 mph E3.4 kmh E 8.9 mph14.3 kmh 29.68 in1005.1 mb 0.00 in0.0 mm 0.00 in0.0 mm 0.00 in0.0 mm
06:30 AM 60.4°F15.8°C 57.2°F14.0°C 89% 3.4 mph ESE5.5 kmh ESE 12.2 mph19.6 kmh 29.68 in1005.1 mb 0.00 in0.0 mm 0.00 in0.0 mm 0.00 in0.0 mm
06:40 AM 60.6°F15.9°C 57.0°F13.9°C 88% 4.6 mph ESE7.4 kmh ESE 10.4 mph16.7 kmh 29.68 in1005.1 mb 0.00 in0.0 mm 0.00 in0.0 mm 0.00 in0.0 mm
06:50 AM 60.8°F16.0°C 57.5°F14.2°C 89% 2.8 mph SE4.5 kmh SE 7.9 mph12.7 kmh 29.68 in1005.1 mb 0.00 in0.0 mm 0.00 in0.0 mm 0.00 in0.0 mm
07:00 AM 61.3°F16.3°C 58.1°F14.5°C 89% 4.5 mph ESE7.2 kmh ESE 10.0 mph16.1 kmh 29.68 in1005.1 mb 0.00 in0.0 mm 0.00 in0.0 mm 0.00 in0.0 mm
07:10 AM 61.5°F16.4°C 57.9°F14.4°C 88% 3.4 mph SE5.5 kmh SE 10.0 mph16.1 kmh 29.68 in1005.1 mb 0.00 in0.0 mm 0.00 in0.0 mm 0.00 in0.0 mm
07:20 AM 61.2°F16.2°C 57.3°F14.1°C 87% 2.2 mph S3.5 kmh S 12.2 mph19.6 kmh 29.68 in1005.1 mb 0.00 in0.0 mm 0.00 in0.0 mm 0.00 in0.0 mm
07:30 AM 60.8°F16.0°C 56.9°F13.8°C 87% 4.2 mph S6.8 kmh S 21.1 mph34.0 kmh 29.68 in1005.1 mb 0.00 in0.0 mm 0.00 in0.0 mm 0.00 in0.0 mm
07:40 AM 61.7°F16.5°C 58.4°F14.7°C 89% 2.5 mph S4.0 kmh S 9.3 mph15.0 kmh 29.68 in1005.1 mb 0.00 in0.0 mm 0.00 in0.0 mm 0.00 in0.0 mm
07:50 AM 63.3°F17.4°C 60.3°F15.7°C 90% 1.5 mph SE2.4 kmh SE 6.1 mph9.8 kmh 29.65 in1004.1 mb 0.00 in0.0 mm 0.00 in0.0 mm 0.00 in0.0 mm
08:00 AM 63.7°F17.6°C 60.1°F15.6°C 88% 2.3 mph S3.7 kmh S 8.6 mph13.8 kmh 29.68 in1005.1 mb 0.00 in0.0 mm 0.00 in0.0 mm 0.00 in0.0 mm
08:10 AM 63.1°F17.3°C 59.2°F15.1°C 87% 2.2 mph S3.5 kmh S 7.9 mph12.7 kmh 29.68 in1005.1 mb 0.00 in0.0 mm 0.00 in0.0 mm 0.00 in0.0 mm
08:20 AM 62.2°F16.8°C 58.3°F14.6°C 87% 3.7 mph S6.0 kmh S 9.7 mph15.6 kmh 29.65 in1004.1 mb 0.00 in0.0 mm 0.00 in0.0 mm 0.00 in0.0 mm
08:30 AM 61.7°F16.5°C 58.1°F14.5°C 88% 3.8 mph S6.1 kmh S 10.4 mph16.7 kmh 29.68 in1005.1 mb 0.00 in0.0 mm 0.00 in0.0 mm 0.00 in0.0 mm
08:40 AM 61.2°F16.2°C 57.9°F14.4°C 89% 5.4 mph S8.7 kmh S 19.3 mph31.1 kmh 29.68 in1005.1 mb 0.00 in0.0 mm 0.00 in0.0 mm 0.00 in0.0 mm
08:50 AM 61.0°F16.1°C 57.7°F14.3°C 89% 2.8 mph S4.5 kmh S 10.0 mph16.1 kmh 29.68 in1005.1 mb 0.05 in1.3 mm 0.30 in7.6 mm 0.05 in1.3 mm
09:00 AM 61.0°F16.1°C 58.0°F14.4°C 90% 0.2 mph SSE0.3 kmh SSE 6.1 mph9.8 kmh 29.65 in1004.1 mb 0.05 in1.3 mm 0.00 in0.0 mm 0.05 in1.3 mm
09:10 AM 61.0°F16.1°C 58.0°F14.4°C 90% 3.6 mph ESE5.8 kmh ESE 11.8 mph19.0 kmh 29.65 in1004.1 mb 0.05 in1.3 mm 0.00 in0.0 mm 0.05 in1.3 mm
09:20 AM 61.3°F16.3°C 58.7°F14.8°C 91% 4.4 mph SE7.1 kmh SE 10.0 mph16.1 kmh 29.68 in1005.1 mb 0.05 in1.3 mm 0.00 in0.0 mm 0.05 in1.3 mm
09:30 AM 61.2°F16.2°C 58.5°F14.7°C 91% 3.0 mph SE4.8 kmh SE 10.4 mph16.7 kmh 29.65 in1004.1 mb 0.05 in1.3 mm 0.00 in0.0 mm 0.05 in1.3 mm
09:40 AM 61.2°F16.2°C 58.5°F14.7°C 91% 2.8 mph SE4.5 kmh SE 7.9 mph12.7 kmh 29.65 in1004.1 mb 0.05 in1.3 mm 0.00 in0.0 mm 0.05 in1.3 mm
09:50 AM 61.2°F16.2°C 58.5°F14.7°C 91% 0.7 mph ESE1.1 kmh ESE 5.7 mph9.2 kmh 29.65 in1004.1 mb 0.06 in1.5 mm 0.06 in1.5 mm 0.10 in2.5 mm
10:00 AM 61.2°F16.2°C 58.5°F14.7°C 91% 0.2 mph E0.3 kmh E 3.9 mph6.3 kmh 29.68 in1005.1 mb 0.06 in1.5 mm 0.00 in0.0 mm 0.10 in2.5 mm
10:10 AM 61.2°F16.2°C 58.5°F14.7°C 91% 2.0 mph E3.2 kmh E 9.3 mph15.0 kmh 29.68 in1005.1 mb 0.06 in1.5 mm 0.00 in0.0 mm 0.10 in2.5 mm
10:20 AM 61.5°F16.4°C 59.2°F15.1°C 92% 0.4 mph SSE0.6 kmh SSE 5.0 mph8.0 kmh 29.65 in1004.1 mb 0.06 in1.5 mm 0.00 in0.0 mm 0.10 in2.5 mm
10:30 AM 62.1°F16.7°C 59.7°F15.4°C 92% 1.8 mph SE2.9 kmh SE 9.3 mph15.0 kmh 29.65 in1004.1 mb 0.06 in1.5 mm 0.00 in0.0 mm 0.10 in2.5 mm
10:40 AM 62.2°F16.8°C 59.6°F15.3°C 91% 2.2 mph SE3.5 kmh SE 10.0 mph16.1 kmh 29.65 in1004.1 mb 0.06 in1.5 mm 0.00 in0.0 mm 0.10 in2.5 mm
10:50 AM 63.0°F17.2°C 60.0°F15.6°C 90% 1.7 mph SE2.7 kmh SE 11.8 mph19.0 kmh 29.65 in1004.1 mb 0.00 in0.0 mm 0.00 in0.0 mm 0.10 in2.5 mm
11:00 AM 63.9°F17.7°C 60.9°F16.1°C 90% 1.9 mph SE3.1 kmh SE 7.5 mph12.1 kmh 29.68 in1005.1 mb 0.00 in0.0 mm 0.00 in0.0 mm 0.10 in2.5 mm
11:10 AM 64.0°F17.8°C 60.1°F15.6°C 87% 3.4 mph SE5.5 kmh SE 9.3 mph15.0 kmh 29.68 in1005.1 mb 0.00 in0.0 mm 0.00 in0.0 mm 0.10 in2.5 mm
11:20 AM 64.4°F18.0°C 60.4°F15.8°C 87% 2.2 mph SE3.5 kmh SE 7.9 mph12.7 kmh 29.68 in1005.1 mb 0.00 in0.0 mm 0.00 in0.0 mm 0.10 in2.5 mm
11:30 AM 64.8°F18.2°C 60.1°F15.6°C 85% 3.8 mph SSE6.1 kmh SSE 10.4 mph16.7 kmh 29.68 in1005.1 mb 0.00 in0.0 mm 0.00 in0.0 mm 0.10 in2.5 mm
11:40 AM 65.1°F18.4°C 60.2°F15.7°C 84% 4.2 mph S6.8 kmh S 11.8 mph19.0 kmh 29.68 in1005.1 mb 0.00 in0.0 mm 0.00 in0.0 mm 0.10 in2.5 mm
11:50 AM 64.0°F17.8°C 58.8°F14.9°C 83% 5.1 mph SSW8.2 kmh SSW 12.9 mph20.8 kmh 29.71 in1006.1 mb 0.00 in0.0 mm 0.00 in0.0 mm 0.10 in2.5 mm
12:00 PM 64.8°F18.2°C 59.5°F15.3°C 83% 3.8 mph S6.1 kmh S 12.2 mph19.6 kmh 29.71 in1006.1 mb 0.00 in0.0 mm 0.00 in0.0 mm 0.10 in2.5 mm
12:10 PM 65.8°F18.8°C 60.5°F15.8°C 83% 5.4 mph SSE8.7 kmh SSE 17.5 mph28.2 kmh 29.71 in1006.1 mb 0.00 in0.0 mm 0.00 in0.0 mm 0.10 in2.5 mm
12:20 PM 66.6°F19.2°C 59.1°F15.1°C 77% 8.6 mph S13.8 kmh S 19.7 mph31.7 kmh 29.68 in1005.1 mb 0.00 in0.0 mm 0.00 in0.0 mm 0.10 in2.5 mm
12:30 PM 67.5°F19.7°C 60.0°F15.6°C 77% 5.4 mph S8.7 kmh S 12.9 mph20.8 kmh 29.68 in1005.1 mb 0.00 in0.0 mm 0.00 in0.0 mm 0.10 in2.5 mm
12:40 PM 67.3°F19.6°C 58.7°F14.8°C 74% 8.5 mph S13.7 kmh S 19.3 mph31.1 kmh 29.68 in1005.1 mb 0.00 in0.0 mm 0.00 in0.0 mm 0.10 in2.5 mm
12:50 PM 68.0°F20.0°C 59.0°F15.0°C 73% 6.4 mph S10.3 kmh S 21.1 mph34.0 kmh 29.68 in1005.1 mb 0.00 in0.0 mm 0.00 in0.0 mm 0.10 in2.5 mm
01:00 PM 67.1°F19.5°C 58.2°F14.6°C 73% 6.6 mph S10.6 kmh S 20.0 mph32.2 kmh 29.71 in1006.1 mb 0.00 in0.0 mm 0.00 in0.0 mm 0.10 in2.5 mm
01:10 PM 67.1°F19.5°C 58.2°F14.6°C 73% 8.6 mph S13.8 kmh S 17.9 mph28.8 kmh 29.71 in1006.1 mb 0.00 in0.0 mm 0.00 in0.0 mm 0.10 in2.5 mm
01:20 PM 67.3°F19.6°C 57.9°F14.4°C 72% 8.5 mph S13.7 kmh S 21.8 mph35.1 kmh 29.71 in1006.1 mb 0.00 in0.0 mm 0.00 in0.0 mm 0.10 in2.5 mm
01:30 PM 67.5°F19.7°C 57.7°F14.3°C 71% 8.1 mph S13.0 kmh S 17.2 mph27.7 kmh 29.71 in1006.1 mb 0.00 in0.0 mm 0.00 in0.0 mm 0.10 in2.5 mm
01:40 PM 67.6°F19.8°C 58.3°F14.6°C 72% 6.7 mph S10.8 kmh S 19.3 mph31.1 kmh 29.71 in1006.1 mb 0.00 in0.0 mm 0.00 in0.0 mm 0.10 in2.5 mm
01:50 PM 66.7°F19.3°C 55.4°F13.0°C 67% 8.2 mph S13.2 kmh S 23.6 mph38.0 kmh 29.71 in1006.1 mb 0.00 in0.0 mm 0.00 in0.0 mm 0.10 in2.5 mm
02:00 PM 66.0°F18.9°C 54.7°F12.6°C 67% 7.8 mph S12.6 kmh S 21.8 mph35.1 kmh 29.71 in1006.1 mb 0.00 in0.0 mm 0.00 in0.0 mm 0.10 in2.5 mm
02:10 PM 65.8°F18.8°C 55.4°F13.0°C 69% 6.7 mph S10.8 kmh S 18.3 mph29.5 kmh 29.71 in1006.1 mb 0.00 in0.0 mm 0.00 in0.0 mm 0.10 in2.5 mm
02:20 PM 64.9°F18.3°C 54.5°F12.5°C 69% 6.8 mph S10.9 kmh S 13.6 mph21.9 kmh 29.74 in1007.1 mb 0.00 in0.0 mm 0.00 in0.0 mm 0.10 in2.5 mm
02:30 PM 65.3°F18.5°C 55.7°F13.2°C 71% 6.2 mph SSW10.0 kmh SSW 12.9 mph20.8 kmh 29.74 in1007.1 mb 0.00 in0.0 mm 0.00 in0.0 mm 0.10 in2.5 mm
02:40 PM 65.7°F18.7°C 55.6°F13.1°C 70% 5.8 mph S9.3 kmh S 12.5 mph20.1 kmh 29.74 in1007.1 mb 0.00 in0.0 mm 0.00 in0.0 mm 0.10 in2.5 mm
02:50 PM 65.5°F18.6°C 55.0°F12.8°C 69% 4.8 mph S7.7 kmh S 10.0 mph16.1 kmh 29.74 in1007.1 mb 0.00 in0.0 mm 0.00 in0.0 mm 0.10 in2.5 mm
03:00 PM 65.8°F18.8°C 55.4°F13.0°C 69% 4.3 mph SSW6.9 kmh SSW 10.4 mph16.7 kmh 29.74 in1007.1 mb 0.00 in0.0 mm 0.00 in0.0 mm 0.10 in2.5 mm
03:10 PM 66.2°F19.0°C 55.3°F12.9°C 68% 5.6 mph S9.0 kmh S 14.0 mph22.5 kmh 29.74 in1007.1 mb 0.00 in0.0 mm 0.00 in0.0 mm 0.10 in2.5 mm
03:20 PM 67.5°F19.7°C 56.1°F13.4°C 67% 6.5 mph SSW10.5 kmh SSW 17.5 mph28.2 kmh 29.74 in1007.1 mb 0.00 in0.0 mm 0.00 in0.0 mm 0.10 in2.5 mm
03:30 PM 66.2°F19.0°C 52.8°F11.6°C 62% 9.5 mph S15.3 kmh S 22.2 mph35.7 kmh 29.74 in1007.1 mb 0.00 in0.0 mm 0.00 in0.0 mm 0.10 in2.5 mm
03:40 PM 65.3°F18.5°C 53.6°F12.0°C 66% 6.6 mph S10.6 kmh S 17.2 mph27.7 kmh 29.74 in1007.1 mb 0.00 in0.0 mm 0.00 in0.0 mm 0.10 in2.5 mm
03:50 PM 65.5°F18.6°C 54.6°F12.6°C 68% 6.4 mph SW10.3 kmh SW 19.0 mph30.6 kmh 29.74 in1007.1 mb 0.00 in0.0 mm 0.00 in0.0 mm 0.10 in2.5 mm
04:00 PM 65.8°F18.8°C 54.6°F12.6°C 67% 8.2 mph S13.2 kmh S 21.1 mph34.0 kmh 29.71 in1006.1 mb 0.00 in0.0 mm 0.00 in0.0 mm 0.10 in2.5 mm
04:10 PM 65.1°F18.4°C 53.5°F11.9°C 66% 6.8 mph SSW10.9 kmh SSW 12.5 mph20.1 kmh 29.71 in1006.1 mb 0.00 in0.0 mm 0.00 in0.0 mm 0.10 in2.5 mm
04:20 PM 65.7°F18.7°C 54.0°F12.2°C 66% 7.9 mph SW12.7 kmh SW 21.1 mph34.0 kmh 29.71 in1006.1 mb 0.00 in0.0 mm 0.00 in0.0 mm 0.10 in2.5 mm
04:30 PM 65.5°F18.6°C 52.5°F11.4°C 63% 8.9 mph SSW14.3 kmh SSW 24.7 mph39.8 kmh 29.74 in1007.1 mb 0.00 in0.0 mm 0.00 in0.0 mm 0.10 in2.5 mm
04:40 PM 64.9°F18.3°C 52.0°F11.1°C 63% 7.5 mph SSW12.1 kmh SSW 20.4 mph32.8 kmh 29.74 in1007.1 mb 0.00 in0.0 mm 0.00 in0.0 mm 0.10 in2.5 mm
04:50 PM 63.5°F17.5°C 50.7°F10.4°C 63% 7.3 mph S11.7 kmh S 22.5 mph36.2 kmh 29.74 in1007.1 mb 0.00 in0.0 mm 0.00 in0.0 mm 0.10 in2.5 mm
05:00 PM 60.8°F16.0°C 50.2°F10.1°C 68% 9.6 mph SSW15.4 kmh SSW 30.4 mph48.9 kmh 29.77 in1008.1 mb 0.00 in0.0 mm 0.00 in0.0 mm 0.10 in2.5 mm
05:10 PM 61.0°F16.1°C 51.9°F11.1°C 72% 5.1 mph S8.2 kmh S 16.1 mph25.9 kmh 29.77 in1008.1 mb 0.00 in0.0 mm 0.00 in0.0 mm 0.10 in2.5 mm
05:20 PM 61.7°F16.5°C 53.3°F11.8°C 74% 6.5 mph SSW10.5 kmh SSW 15.7 mph25.3 kmh 29.74 in1007.1 mb 0.00 in0.0 mm 0.00 in0.0 mm 0.10 in2.5 mm
05:30 PM 62.1°F16.7°C 53.3°F11.8°C 73% 6.4 mph S10.3 kmh S 16.5 mph26.6 kmh 29.77 in1008.1 mb 0.00 in0.0 mm 0.00 in0.0 mm 0.10 in2.5 mm
05:40 PM 61.3°F16.3°C 51.9°F11.1°C 71% 6.7 mph SSW10.8 kmh SSW 16.5 mph26.6 kmh 29.77 in1008.1 mb 0.00 in0.0 mm 0.00 in0.0 mm 0.10 in2.5 mm
05:50 PM 60.6°F15.9°C 50.4°F10.2°C 69% 9.4 mph S15.1 kmh S 21.1 mph34.0 kmh 29.77 in1008.1 mb 0.00 in0.0 mm 0.00 in0.0 mm 0.10 in2.5 mm
06:00 PM 61.5°F16.4°C 51.3°F10.7°C 69% 7.3 mph S11.7 kmh S 17.2 mph27.7 kmh 29.74 in1007.1 mb 0.00 in0.0 mm 0.00 in0.0 mm 0.10 in2.5 mm
06:10 PM 61.7°F16.5°C 51.0°F10.6°C 68% 10.4 mph SSW16.7 kmh SSW 27.2 mph43.8 kmh 29.74 in1007.1 mb 0.00 in0.0 mm 0.00 in0.0 mm 0.10 in2.5 mm
06:20 PM 60.8°F16.0°C 50.6°F10.3°C 69% 11.2 mph SSW18.0 kmh SSW 22.9 mph36.9 kmh 29.77 in1008.1 mb 0.00 in0.0 mm 0.00 in0.0 mm 0.10 in2.5 mm
06:30 PM 60.6°F15.9°C 49.6°F9.8°C 67% 10.9 mph SSW17.5 kmh SSW 32.2 mph51.8 kmh 29.77 in1008.1 mb 0.00 in0.0 mm 0.00 in0.0 mm 0.10 in2.5 mm
06:40 PM 60.8°F16.0°C 50.2°F10.1°C 68% 10.0 mph S16.1 kmh S 20.4 mph32.8 kmh 29.77 in1008.1 mb 0.00 in0.0 mm 0.00 in0.0 mm 0.10 in2.5 mm
06:50 PM 61.0°F16.1°C 50.3°F10.2°C 68% 9.5 mph S15.3 kmh S 23.3 mph37.5 kmh 29.77 in1008.1 mb 0.00 in0.0 mm 0.00 in0.0 mm 0.10 in2.5 mm
07:00 PM 60.4°F15.8°C 49.4°F9.7°C 67% 11.3 mph S18.2 kmh S 28.3 mph45.5 kmh 29.77 in1008.1 mb 0.00 in0.0 mm 0.00 in0.0 mm 0.10 in2.5 mm
07:10 PM 59.7°F15.4°C 49.5°F9.7°C 69% 10.3 mph S16.6 kmh S 36.5 mph58.7 kmh 29.77 in1008.1 mb 0.00 in0.0 mm 0.00 in0.0 mm 0.10 in2.5 mm
07:20 PM 59.0°F15.0°C 49.6°F9.8°C 71% 8.0 mph S12.9 kmh S 19.3 mph31.1 kmh 29.77 in1008.1 mb 0.00 in0.0 mm 0.00 in0.0 mm 0.10 in2.5 mm
07:30 PM 58.6°F14.8°C 50.0°F10.0°C 73% 7.3 mph S11.7 kmh S 19.3 mph31.1 kmh 29.80 in1009.1 mb 0.00 in0.0 mm 0.00 in0.0 mm 0.10 in2.5 mm
07:40 PM 58.3°F14.6°C 50.0°F10.0°C 74% 6.7 mph S10.8 kmh S 17.5 mph28.2 kmh 29.80 in1009.1 mb 0.00 in0.0 mm 0.00 in0.0 mm 0.10 in2.5 mm
07:50 PM 57.7°F14.3°C 49.9°F9.9°C 75% 5.9 mph S9.5 kmh S 16.1 mph25.9 kmh 29.80 in1009.1 mb 0.00 in0.0 mm 0.00 in0.0 mm 0.10 in2.5 mm
08:00 PM 57.4°F14.1°C 49.9°F9.9°C 76% 5.7 mph S9.2 kmh S 14.0 mph22.5 kmh 29.80 in1009.1 mb 0.00 in0.0 mm 0.00 in0.0 mm 0.10 in2.5 mm
08:10 PM 57.4°F14.1°C 49.9°F9.9°C 76% 6.1 mph S9.8 kmh S 13.6 mph21.9 kmh 29.80 in1009.1 mb 0.00 in0.0 mm 0.00 in0.0 mm 0.10 in2.5 mm
08:20 PM 57.4°F14.1°C 49.9°F9.9°C 76% 4.7 mph S7.6 kmh S 12.9 mph20.8 kmh 29.80 in1009.1 mb 0.00 in0.0 mm 0.00 in0.0 mm 0.10 in2.5 mm
08:30 PM 57.4°F14.1°C 49.9°F9.9°C 76% 3.7 mph S6.0 kmh S 11.8 mph19.0 kmh 29.80 in1009.1 mb 0.00 in0.0 mm 0.00 in0.0 mm 0.10 in2.5 mm
08:40 PM 57.2°F14.0°C 49.7°F9.8°C 76% 4.0 mph S6.4 kmh S 11.8 mph19.0 kmh 29.80 in1009.1 mb 0.00 in0.0 mm 0.00 in0.0 mm 0.10 in2.5 mm
08:50 PM 57.4°F14.1°C 49.9°F9.9°C 76% 5.0 mph S8.0 kmh S 14.3 mph23.0 kmh 29.80 in1009.1 mb 0.00 in0.0 mm 0.00 in0.0 mm 0.10 in2.5 mm
09:00 PM 57.7°F14.3°C 49.5°F9.7°C 74% 7.2 mph S11.6 kmh S 19.7 mph31.7 kmh 29.80 in1009.1 mb 0.00 in0.0 mm 0.00 in0.0 mm 0.10 in2.5 mm
09:10 PM 58.1°F14.5°C 49.9°F9.9°C 74% 7.3 mph S11.7 kmh S 15.7 mph25.3 kmh 29.80 in1009.1 mb 0.00 in0.0 mm 0.00 in0.0 mm 0.10 in2.5 mm
09:20 PM 58.1°F14.5°C 49.9°F9.9°C 74% 7.7 mph S12.4 kmh S 17.5 mph28.2 kmh 29.80 in1009.1 mb 0.00 in0.0 mm 0.00 in0.0 mm 0.10 in2.5 mm
09:30 PM 58.3°F14.6°C 50.0°F10.0°C 74% 8.0 mph S12.9 kmh S 19.0 mph30.6 kmh 29.80 in1009.1 mb 0.00 in0.0 mm 0.00 in0.0 mm 0.10 in2.5 mm
09:40 PM 58.5°F14.7°C 49.8°F9.9°C 73% 6.9 mph S11.1 kmh S 12.9 mph20.8 kmh 29.80 in1009.1 mb 0.00 in0.0 mm 0.00 in0.0 mm 0.10 in2.5 mm
09:50 PM 58.6°F14.8°C 50.0°F10.0°C 73% 7.6 mph S12.2 kmh S 12.5 mph20.1 kmh 29.80 in1009.1 mb 0.00 in0.0 mm 0.00 in0.0 mm 0.10 in2.5 mm
10:00 PM 58.6°F14.8°C 50.4°F10.2°C 74% 6.0 mph S9.7 kmh S 18.3 mph29.5 kmh 29.83 in1010.2 mb 0.00 in0.0 mm 0.00 in0.0 mm 0.10 in2.5 mm
10:10 PM 58.8°F14.9°C 50.9°F10.5°C 75% 8.2 mph S13.2 kmh S 16.1 mph25.9 kmh 29.83 in1010.2 mb 0.00 in0.0 mm 0.00 in0.0 mm 0.10 in2.5 mm
10:20 PM 58.6°F14.8°C 50.7°F10.4°C 75% 8.4 mph S13.5 kmh S 24.7 mph39.8 kmh 29.80 in1009.1 mb 0.00 in0.0 mm 0.00 in0.0 mm 0.10 in2.5 mm
10:30 PM 58.6°F14.8°C 50.4°F10.2°C 74% 8.7 mph S14.0 kmh S 20.4 mph32.8 kmh 29.77 in1008.1 mb 0.00 in0.0 mm 0.00 in0.0 mm 0.10 in2.5 mm
10:40 PM 58.5°F14.7°C 50.2°F10.1°C 74% 9.2 mph S14.8 kmh S 19.7 mph31.7 kmh 29.77 in1008.1 mb 0.00 in0.0 mm 0.00 in0.0 mm 0.10 in2.5 mm
10:50 PM 58.5°F14.7°C 49.8°F9.9°C 73% 9.7 mph S15.6 kmh S 21.8 mph35.1 kmh 29.77 in1008.1 mb 0.00 in0.0 mm 0.00 in0.0 mm 0.10 in2.5 mm
11:00 PM 58.3°F14.6°C 49.3°F9.6°C 72% 8.2 mph S13.2 kmh S 20.0 mph32.2 kmh 29.80 in1009.1 mb 0.00 in0.0 mm 0.00 in0.0 mm 0.06 in1.5 mm
11:10 PM 57.9°F14.4°C 48.9°F9.4°C 72% 8.5 mph S13.7 kmh S 16.5 mph26.6 kmh 29.80 in1009.1 mb 0.00 in0.0 mm 0.00 in0.0 mm 0.06 in1.5 mm
11:20 PM 57.6°F14.2°C 49.3°F9.6°C 74% 8.3 mph S13.4 kmh S 17.2 mph27.7 kmh 29.80 in1009.1 mb 0.00 in0.0 mm 0.00 in0.0 mm 0.06 in1.5 mm
11:30 PM 57.2°F14.0°C 49.3°F9.6°C 75% 6.4 mph S10.3 kmh S 15.4 mph24.8 kmh 29.77 in1008.1 mb 0.00 in0.0 mm 0.00 in0.0 mm 0.06 in1.5 mm
11:40 PM 57.0°F13.9°C 49.9°F9.9°C 77% 6.3 mph S10.1 kmh S 12.2 mph19.6 kmh 29.77 in1008.1 mb 0.00 in0.0 mm 0.00 in0.0 mm 0.06 in1.5 mm
11:50 PM 56.7°F13.7°C 49.5°F9.7°C 77% 4.4 mph S7.1 kmh S 15.7 mph25.3 kmh 29.77 in1008.1 mb 0.00 in0.0 mm 0.00 in0.0 mm 0.06 in1.5 mm